Nevada, Minnesota
Current Conditions -  °F | °C
As of 3:56 PM on Monday 24 Nov 2014 (Local Time) from KAUM Reporting Station
Light Snow Light Snow  
Wind Chill: -1°   Ceiling: 2300
Heat Index: 18°   Visibility: 5mi
Dew Point: 12°   Wind: 25mph
Humidity: 79%   Direction: 300°WNW
Pressure: 29.61"   Gusts: 31mph
Location:  43.5433°N, 92.9289°W
Report Text: KAUM 242156Z AUTO 30022G27KT 5SM -SN SCT013 BKN023 OVC060 M08/M11 A2961 RMK AO2
Loading
Personal Weather Stations






























Interactive Weather Map New forecast layout! Learn more

10-Day Weather Forecast

Advertisements
Track Severe Weather on mobile